Time;durP1;ratioP1;P1;durP2;ratioP2;P2;SDS_P1;SDS_P2;PMS_P1;PMS_P2;Temp;Humidity;BMP_temperature;BMP_pressure;BME280_temperature;BME280_humidity;BME280_pressure;Samples;Min_cycle;Max_cycle;Signal;HPM_P1;HPM_P2
2022/12/04 00:01:24;;;;;;;3.47;2.97;;;2.30;99.90;;;;;;5009170;28;20057;-63
2022/12/04 00:03:54;;;;;;;1.30;1.13;;;2.30;99.90;;;;;;5026134;28;20049;-64
2022/12/04 00:06:21;;;;;;;2.13;1.08;;;2.30;99.90;;;;;;5010206;28;20185;-64
2022/12/04 00:08:47;;;;;;;9.18;1.48;;;2.30;99.90;;;;;;5008890;28;20042;-64
2022/12/04 00:11:16;;;;;;;2.47;2.30;;;2.30;99.90;;;;;;5011077;28;20045;-63
2022/12/04 00:13:42;;;;;;;0.10;0.10;;;2.20;99.90;;;;;;5013848;28;20430;-64
2022/12/04 00:16:11;;;;;;;0.30;0.30;;;2.20;99.90;;;;;;5026357;28;21101;-64
2022/12/04 00:18:37;;;;;;;0.90;0.90;;;2.20;99.90;;;;;;5023521;28;20037;-63
2022/12/04 00:21:05;;;;;;;11.80;1.48;;;2.30;99.90;;;;;;5023159;28;20096;-64
2022/12/04 00:23:31;;;;;;;0.35;0.35;;;2.30;99.90;;;;;;5008029;28;20092;-63
2022/12/04 00:26:11;;;;;;;0.30;0.30;;;2.40;99.90;;;;;;5020844;28;20065;-63
2022/12/04 00:28:38;;;;;;;1.08;1.08;;;2.40;99.90;;;;;;5018973;28;20103;-64
2022/12/04 00:31:05;;;;;;;0.50;0.50;;;2.50;99.90;;;;;;5014784;28;20482;-64
2022/12/04 00:33:31;;;;;;;4.25;2.13;;;2.50;99.90;;;;;;5035021;28;20136;-65
2022/12/04 00:35:58;;;;;;;0.55;0.55;;;2.50;99.90;;;;;;5048002;28;20587;-64
2022/12/04 00:38:25;;;;;;;2.30;1.75;;;2.50;99.90;;;;;;5010685;28;20042;-63
2022/12/04 00:40:51;;;;;;;2.55;2.35;;;2.60;99.90;;;;;;5010234;28;20050;-64
2022/12/04 00:43:17;;;;;;;2.65;2.05;;;2.60;99.90;;;;;;5040586;28;20040;-63
2022/12/04 00:45:43;;;;;;;0.20;0.20;;;2.60;99.90;;;;;;5008561;28;20042;-63
2022/12/04 00:48:08;;;;;;;1.50;1.40;;;2.60;99.90;;;;;;5010663;28;20041;-63
2022/12/04 00:50:34;;;;;;;6.45;1.13;;;2.60;99.90;;;;;;5006792;28;20329;-63
2022/12/04 00:53:00;;;;;;;0.10;0.10;;;2.50;99.90;;;;;;5007932;28;20525;-63
2022/12/04 00:55:26;;;;;;;8.10;1.40;;;2.50;99.90;;;;;;5027655;28;20481;-63
2022/12/04 00:57:52;;;;;;;1.52;1.45;;;2.50;99.90;;;;;;5023640;28;20065;-63
2022/12/04 01:00:17;;;;;;;2.55;2.35;;;2.40;99.90;;;;;;5028163;28;20107;-63
2022/12/04 01:02:44;;;;;;;0.77;0.77;;;2.40;99.90;;;;;;5025651;28;20488;-64
2022/12/04 01:05:11;;;;;;;1.33;1.23;;;2.40;99.90;;;;;;5014485;28;20432;-64
2022/12/04 01:07:37;;;;;;;0.50;0.50;;;2.40;99.90;;;;;;5028180;28;20525;-63
2022/12/04 01:10:05;;;;;;;0.32;0.32;;;2.50;99.90;;;;;;5013553;28;20046;-64
2022/12/04 01:12:31;;;;;;;1.08;1.00;;;2.40;99.90;;;;;;5025373;28;20102;-64
2022/12/04 01:14:56;;;;;;;0.10;0.10;;;2.50;99.90;;;;;;5013794;28;20422;-64
2022/12/04 01:17:22;;;;;;;2.47;1.80;;;2.40;99.90;;;;;;5020477;28;20037;-63
2022/12/04 01:19:48;;;;;;;1.27;1.20;;;2.40;99.90;;;;;;5016061;28;20053;-63
2022/12/04 01:22:14;;;;;;;0.13;0.13;;;2.50;99.90;;;;;;5010932;28;20045;-63
2022/12/04 01:24:39;;;;;;;0.45;0.45;;;2.50;99.90;;;;;;5008732;28;20038;-65
2022/12/04 01:27:05;;;;;;;0.30;0.30;;;2.50;99.90;;;;;;5019974;28;20038;-63
2022/12/04 01:29:30;;;;;;;1.50;1.42;;;2.50;99.90;;;;;;5020727;28;20049;-64
2022/12/04 01:31:56;;;;;;;3.38;0.77;;;2.40;99.90;;;;;;5027909;28;20409;-64
2022/12/04 01:34:24;;;;;;;1.58;1.48;;;2.50;99.90;;;;;;5023448;28;20560;-63
2022/12/04 01:36:50;;;;;;;0.40;0.40;;;2.40;99.90;;;;;;5014940;28;20056;-64
2022/12/04 01:39:16;;;;;;;0.20;0.20;;;2.50;99.90;;;;;;5025887;28;20661;-63
2022/12/04 01:41:42;;;;;;;0.82;0.82;;;2.50;99.90;;;;;;5028207;28;20041;-63
2022/12/04 01:44:15;;;;;;;0.60;0.60;;;2.50;99.90;;;;;;5021175;28;20046;-64
2022/12/04 01:46:43;;;;;;;0.15;0.15;;;2.50;99.90;;;;;;5012463;28;20440;-64
2022/12/04 01:49:20;;;;;;;0.22;0.22;;;2.50;99.90;;;;;;5012339;28;20046;-63
2022/12/04 01:51:51;;;;;;;0.50;0.50;;;2.50;99.90;;;;;;5016986;28;20504;-63
2022/12/04 01:54:29;;;;;;;0.30;0.30;;;2.50;99.90;;;;;;5026652;28;20045;-64
2022/12/04 01:57:03;;;;;;;1.05;1.05;;;2.50;99.90;;;;;;5033801;28;20128;-64
2022/12/04 01:59:34;;;;;;;0.30;0.30;;;2.50;99.90;;;;;;5014343;28;20037;-64
2022/12/04 02:02:10;;;;;;;2.17;0.95;;;2.50;99.90;;;;;;5009659;28;20072;-64
2022/12/04 02:04:38;;;;;;;0.70;0.70;;;2.50;99.90;;;;;;5025348;28;20045;-64
2022/12/04 02:07:04;;;;;;;0.30;0.30;;;2.50;99.90;;;;;;5013305;28;20049;-64
2022/12/04 02:09:31;;;;;;;1.30;1.20;;;2.50;99.90;;;;;;5011422;28;20056;-64
2022/12/04 02:12:16;;;;;;;3.45;2.85;;;2.40;99.90;;;;;;5010772;28;20050;-63
2022/12/04 02:15:01;;;;;;;0.28;0.28;;;2.40;99.90;;;;;;5020370;28;20515;-64
2022/12/04 02:17:44;;;;;;;0.10;0.10;;;2.40;99.90;;;;;;5010296;28;20058;-63
2022/12/04 02:20:40;;;;;;;0.45;0.45;;;2.20;99.90;;;;;;5022505;28;20124;-63
2022/12/04 02:23:30;;;;;;;1.85;1.75;;;2.20;99.90;;;;;;5012379;28;20081;-63
2022/12/04 02:26:01;;;;;;;0.70;0.70;;;2.20;99.90;;;;;;5023641;28;20041;-64
2022/12/04 02:28:45;;;;;;;0.80;0.80;;;2.10;99.90;;;;;;5010698;28;20046;-64
2022/12/04 02:31:18;;;;;;;5.10;1.00;;;2.20;99.90;;;;;;5042738;28;20057;-64
2022/12/04 02:33:56;;;;;;;0.35;0.35;;;2.10;99.90;;;;;;5037988;28;20049;-64
2022/12/04 02:36:25;;;;;;;0.25;0.25;;;2.00;99.90;;;;;;5029233;28;20615;-64
2022/12/04 02:39:04;;;;;;;0.88;0.88;;;2.00;99.90;;;;;;5031337;28;20053;-64
2022/12/04 02:41:43;;;;;;;0.20;0.20;;;2.00;99.90;;;;;;5014866;28;20038;-63
2022/12/04 02:44:17;;;;;;;1.73;1.63;;;1.90;99.90;;;;;;5021205;28;20116;-64
2022/12/04 02:46:47;;;;;;;1.60;1.50;;;1.90;99.90;;;;;;5049218;28;20053;-63
2022/12/04 02:49:21;;;;;;;1.42;1.33;;;1.90;99.90;;;;;;5044367;28;20040;-63
2022/12/04 02:51:48;;;;;;;;;;;1.90;99.90;;;;;;5029626;28;20038;-64
2022/12/04 02:54:29;;;;;;;0.60;0.60;;;1.90;99.90;;;;;;5029011;28;20008;-63
2022/12/04 02:56:55;;;;;;;0.70;0.70;;;1.90;99.90;;;;;;5027186;28;20061;-63
2022/12/04 02:59:45;;;;;;;0.35;0.35;;;1.90;99.90;;;;;;5012138;28;20054;-63
2022/12/04 03:02:18;;;;;;;1.08;1.08;;;1.90;99.90;;;;;;5011629;28;20064;-63
2022/12/04 03:04:49;;;;;;;12.50;2.67;;;1.80;99.90;;;;;;5027875;28;20059;-64
2022/12/04 03:07:31;;;;;;;0.88;0.88;;;1.80;99.90;;;;;;5010052;28;20073;-64
2022/12/04 03:10:02;;;;;;;0.70;0.70;;;1.80;99.90;;;;;;5011995;28;20103;-64
2022/12/04 03:12:42;;;;;;;1.70;1.60;;;1.80;99.90;;;;;;5013995;28;20080;-64
2022/12/04 03:15:50;;;;;;;1.40;1.30;;;1.80;99.90;;;;;;5023016;28;20531;-63
2022/12/04 03:18:21;;;;;;;3.65;2.08;;;1.80;99.90;;;;;;5046150;28;20428;-63
2022/12/04 03:20:53;;;;;;;0.40;0.40;;;1.80;99.90;;;;;;5046591;28;20120;-63
2022/12/04 03:23:25;;;;;;;6.63;1.63;;;1.80;99.90;;;;;;5036356;28;20172;-63
2022/12/04 03:26:06;;;;;;;0.47;0.47;;;1.80;99.90;;;;;;5028320;28;20053;-63
2022/12/04 03:28:56;;;;;;;1.67;1.58;;;1.80;99.90;;;;;;5008536;28;20058;-63
2022/12/04 03:31:46;;;;;;;5.38;3.30;;;1.90;99.90;;;;;;5009341;28;20140;-62
2022/12/04 03:34:18;;;;;;;0.30;0.30;;;1.90;99.90;;;;;;5019285;28;20052;-63
2022/12/04 03:37:05;;;;;;;5.28;3.80;;;1.90;99.90;;;;;;5034751;28;20076;-63
2022/12/04 03:39:31;;;;;;;1.08;1.08;;;2.00;99.90;;;;;;5024336;28;20037;-64
2022/12/04 03:41:57;;;;;;;0.10;0.10;;;2.00;99.90;;;;;;5029302;28;20060;-63
2022/12/04 03:44:28;;;;;;;7.50;1.33;;;2.00;99.90;;;;;;5023605;28;20299;-63
2022/12/04 03:47:00;;;;;;;0.57;0.57;;;2.10;99.90;;;;;;5007970;28;20081;-63
2022/12/04 03:49:39;;;;;;;1.85;1.30;;;2.00;99.90;;;;;;5024121;28;20033;-63
2022/12/04 03:52:25;;;;;;;2.03;1.85;;;2.10;99.90;;;;;;5015044;28;20038;-63
2022/12/04 03:54:58;;;;;;;0.10;0.10;;;2.10;99.90;;;;;;5010603;28;20057;-64
2022/12/04 03:57:29;;;;;;;2.53;2.33;;;2.10;99.90;;;;;;5042072;28;20052;-63
2022/12/04 04:00:06;;;;;;;0.40;0.40;;;2.10;99.90;;;;;;5048128;28;20068;-63
2022/12/04 04:02:36;;;;;;;3.70;2.70;;;2.10;99.90;;;;;;5019099;28;20124;-63
2022/12/04 04:05:06;;;;;;;2.63;1.90;;;2.20;99.90;;;;;;5022977;28;20115;-63
2022/12/04 04:07:38;;;;;;;1.50;1.40;;;2.10;99.90;;;;;;5011151;28;20153;-63
2022/12/04 04:10:12;;;;;;;0.73;0.73;;;2.20;99.90;;;;;;5007806;28;20037;-63
2022/12/04 04:24:13;;;;;;;1.70;1.60;;;2.10;99.90;;;;;;5025378;28;20606;-63
2022/12/04 04:24:15;;;;;;;1.30;1.27;;;2.10;99.90;;;;;;5020828;28;20052;-63
2022/12/04 04:26:48;;;;;;;0.20;0.20;;;2.10;99.90;;;;;;5021855;28;20379;-63
2022/12/04 04:29:14;;;;;;;2.38;2.25;;;2.10;99.90;;;;;;5007779;28;20057;-63
2022/12/04 04:32:04;;;;;;;0.50;0.50;;;2.20;99.90;;;;;;5007302;28;20133;-64
2022/12/04 04:34:59;;;;;;;0.63;0.63;;;2.20;99.90;;;;;;5028793;28;20568;-63
2022/12/04 04:38:05;;;;;;;0.70;0.65;;;2.20;99.90;;;;;;5010660;28;20089;-64
2022/12/04 04:40:55;;;;;;;1.27;1.17;;;2.10;99.90;;;;;;5008136;28;20493;-64
2022/12/04 04:43:26;;;;;;;2.30;1.70;;;2.20;99.90;;;;;;5008992;28;20524;-63
2022/12/04 04:46:16;;;;;;;0.73;0.73;;;2.20;99.90;;;;;;5008820;28;20056;-64
2022/12/04 04:48:47;;;;;;;2.38;2.00;;;2.20;99.90;;;;;;5012243;28;20065;-63
2022/12/04 04:51:14;;;;;;;1.10;1.10;;;2.20;99.90;;;;;;5008593;28;20040;-63
2022/12/04 04:53:45;;;;;;;0.55;0.55;;;2.20;99.90;;;;;;5007449;28;20096;-64
2022/12/04 04:56:11;;;;;;;1.33;0.60;;;2.20;99.90;;;;;;5008815;28;20782;-63
2022/12/04 04:58:37;;;;;;;0.68;0.55;;;2.20;99.90;;;;;;5007299;28;20064;-63
2022/12/04 05:01:25;;;;;;;0.70;0.68;;;2.20;99.90;;;;;;5012342;28;20045;-63
2022/12/04 05:03:51;;;;;;;1.50;1.40;;;2.20;99.90;;;;;;5030089;28;20049;-63
2022/12/04 05:06:17;;;;;;;7.30;4.47;;;2.20;99.90;;;;;;5028515;28;20063;-63
2022/12/04 05:08:43;;;;;;;2.17;2.00;;;2.10;99.90;;;;;;5027312;28;20401;-64
2022/12/04 05:11:12;;;;;;;1.45;1.42;;;2.20;99.90;;;;;;5028150;28;20056;-64
2022/12/04 05:13:38;;;;;;;1.17;1.17;;;2.10;99.90;;;;;;5013332;28;20054;-63
2022/12/04 05:16:09;;;;;;;0.82;0.82;;;2.10;99.90;;;;;;5022267;28;20125;-63
2022/12/04 05:18:35;;;;;;;0.40;0.40;;;2.10;99.90;;;;;;5015067;28;20120;-63
2022/12/04 05:21:09;;;;;;;0.75;0.60;;;2.10;99.90;;;;;;5017710;28;20049;-63
2022/12/04 05:23:35;;;;;;;2.05;1.95;;;2.10;99.90;;;;;;5028401;28;20041;-63
2022/12/04 05:26:01;;;;;;;3.20;2.28;;;2.10;99.90;;;;;;5012157;28;20049;-63
2022/12/04 05:28:27;;;;;;;0.68;0.68;;;2.10;99.90;;;;;;5011084;28;20353;-63
2022/12/04 05:30:58;;;;;;;1.10;1.10;;;2.10;99.90;;;;;;5020248;28;20058;-63
2022/12/04 05:33:24;;;;;;;0.77;0.77;;;2.10;99.90;;;;;;5033839;28;20080;-63
2022/12/04 05:36:00;;;;;;;2.35;0.82;;;2.20;99.90;;;;;;5021925;28;20038;-64
2022/12/04 05:38:26;;;;;;;6.80;2.67;;;2.10;99.90;;;;;;5018361;28;20049;-64
2022/12/04 05:40:52;;;;;;;0.40;0.40;;;2.10;99.90;;;;;;5011177;28;20045;-64
2022/12/04 05:43:18;;;;;;;0.40;0.40;;;2.20;99.90;;;;;;5010795;28;20460;-63
2022/12/04 05:45:43;;;;;;;0.57;0.57;;;2.10;99.90;;;;;;5024983;28;20046;-63
2022/12/04 05:48:09;;;;;;;0.80;0.80;;;2.10;99.90;;;;;;5023004;28;20072;-63
2022/12/04 05:50:34;;;;;;;0.88;0.82;;;2.10;99.90;;;;;;5015787;28;20104;-63
2022/12/04 05:53:00;;;;;;;1.25;1.25;;;2.10;99.90;;;;;;5019367;28;20037;-63
2022/12/04 05:55:26;;;;;;;3.28;3.08;;;2.10;99.90;;;;;;5040985;28;20049;-63
2022/12/04 05:57:51;;;;;;;8.85;2.80;;;2.10;99.90;;;;;;5009460;28;20096;-64
2022/12/04 06:00:17;;;;;;;1.27;1.23;;;2.20;99.90;;;;;;5016950;28;20504;-63
2022/12/04 06:02:43;;;;;;;2.60;2.47;;;2.10;99.90;;;;;;5015057;28;20100;-64
2022/12/04 06:05:08;;;;;;;0.95;0.95;;;2.10;99.90;;;;;;5011000;28;20082;-63
2022/12/04 06:07:34;;;;;;;0.55;0.55;;;2.10;99.90;;;;;;5010183;28;20402;-63
2022/12/04 06:10:00;;;;;;;0.57;0.57;;;2.10;99.90;;;;;;5010398;28;20076;-63
2022/12/04 06:12:26;;;;;;;3.47;0.73;;;2.10;99.90;;;;;;5029985;28;20590;-64
2022/12/04 06:14:51;;;;;;;1.67;1.58;;;2.10;99.90;;;;;;5028360;28;20065;-64
2022/12/04 06:17:17;;;;;;;1.83;1.73;;;2.10;99.90;;;;;;5040298;28;20094;-64
2022/12/04 06:19:43;;;;;;;1.40;1.35;;;2.10;99.90;;;;;;5024999;28;20128;-63
2022/12/04 06:22:08;;;;;;;1.48;1.38;;;2.10;99.90;;;;;;5032308;28;20044;-63
2022/12/04 06:24:34;;;;;;;0.40;0.40;;;2.10;99.90;;;;;;5050298;28;20037;-64
2022/12/04 06:27:00;;;;;;;1.50;1.27;;;2.10;99.90;;;;;;5043288;28;20056;-63
2022/12/04 06:29:25;;;;;;;0.73;0.73;;;2.10;99.90;;;;;;5029424;28;20111;-63
2022/12/04 06:31:51;;;;;;;0.75;0.73;;;2.10;99.90;;;;;;5016943;28;20096;-63
2022/12/04 06:34:17;;;;;;;0.85;0.85;;;2.10;99.90;;;;;;5010065;28;20058;-63
2022/12/04 06:36:42;;;;;;;3.17;1.35;;;2.10;99.90;;;;;;5010549;28;20053;-63
2022/12/04 06:39:08;;;;;;;0.20;0.20;;;2.10;99.90;;;;;;5010417;28;20057;-63
2022/12/04 06:41:34;;;;;;;3.53;1.48;;;2.10;99.90;;;;;;5011842;28;20048;-63
2022/12/04 06:44:00;;;;;;;1.77;1.67;;;2.10;99.90;;;;;;5016005;28;20041;-63
2022/12/04 06:46:28;;;;;;;1.10;1.10;;;2.10;99.90;;;;;;5009100;28;20041;-63
2022/12/04 06:48:56;;;;;;;3.42;3.20;;;2.10;99.90;;;;;;5009826;28;20096;-63
2022/12/04 06:51:25;;;;;;;0.50;0.50;;;2.10;99.90;;;;;;5032790;28;20047;-63
2022/12/04 06:53:51;;;;;;;1.08;0.63;;;2.10;99.90;;;;;;5025894;28;20073;-63
2022/12/04 06:56:20;;;;;;;0.40;0.40;;;2.10;99.90;;;;;;5010671;28;20077;-63
2022/12/04 06:58:47;;;;;;;8.80;2.35;;;2.10;99.90;;;;;;5008589;28;20054;-63
2022/12/04 07:01:15;;;;;;;1.38;1.27;;;2.10;99.90;;;;;;5025088;28;20115;-63
2022/12/04 07:03:42;;;;;;;1.73;1.63;;;2.10;99.90;;;;;;5030318;28;20037;-63
2022/12/04 07:06:35;;;;;;;1.00;0.95;;;2.10;99.90;;;;;;5030085;28;20604;-63
2022/12/04 07:09:14;;;;;;;2.13;1.92;;;2.10;99.90;;;;;;5024038;28;20541;-63
2022/12/04 07:11:41;;;;;;;0.75;0.75;;;2.10;99.90;;;;;;5011947;28;20413;-63
2022/12/04 07:14:07;;;;;;;0.50;0.50;;;2.10;99.90;;;;;;5033914;28;20106;-65
2022/12/04 07:16:33;;;;;;;1.08;1.05;;;2.20;99.90;;;;;;5028967;28;20053;-64
2022/12/04 07:18:59;;;;;;;5.68;2.00;;;2.10;99.90;;;;;;5013962;28;20430;-63
2022/12/04 07:21:29;;;;;;;2.47;2.38;;;2.20;99.90;;;;;;5007607;28;20140;-63
2022/12/04 07:23:57;;;;;;;3.22;2.83;;;2.20;99.90;;;;;;5023013;28;20053;-63
2022/12/04 07:26:24;;;;;;;1.70;1.60;;;2.20;99.90;;;;;;5029435;28;20537;-63
2022/12/04 07:28:50;;;;;;;2.35;1.85;;;2.20;99.90;;;;;;5010215;28;20052;-63
2022/12/04 07:31:19;;;;;;;3.72;3.47;;;2.20;99.90;;;;;;5033226;28;20492;-63
2022/12/04 07:33:45;;;;;;;12.90;1.55;;;2.30;99.90;;;;;;5024148;28;20136;-63
2022/12/04 07:36:14;;;;;;;0.32;0.32;;;2.30;99.90;;;;;;5023009;28;20515;-63
2022/12/04 07:38:41;;;;;;;7.40;3.58;;;2.30;99.90;;;;;;5016447;28;20152;-65
2022/12/04 07:41:09;;;;;;;2.63;0.70;;;2.30;99.90;;;;;;5025739;28;20044;-64
2022/12/04 07:43:35;;;;;;;2.67;1.08;;;2.30;99.90;;;;;;5025666;28;20056;-64
2022/12/04 07:46:22;;;;;;;8.80;2.88;;;2.30;99.90;;;;;;5013936;28;20042;-64
2022/12/04 07:48:48;;;;;;;6.55;1.02;;;2.30;99.90;;;;;;5018546;28;20058;-64
2022/12/04 07:51:17;;;;;;;1.27;1.13;;;2.30;99.90;;;;;;5027271;28;20041;-64
2022/12/04 07:53:43;;;;;;;1.38;1.38;;;2.30;99.90;;;;;;5018065;28;20104;-64
2022/12/04 07:56:10;;;;;;;0.30;0.30;;;2.30;99.90;;;;;;5022298;28;20037;-64
2022/12/04 07:58:37;;;;;;;1.58;1.48;;;2.30;99.90;;;;;;5020921;28;20073;-64
2022/12/04 08:01:14;;;;;;;1.83;1.73;;;2.30;99.90;;;;;;5021253;28;20064;-64
2022/12/04 08:03:42;;;;;;;0.55;0.55;;;2.30;99.90;;;;;;5031974;28;20076;-64
2022/12/04 08:06:08;;;;;;;0.47;0.47;;;2.30;99.90;;;;;;5012320;28;20128;-64
2022/12/04 08:08:34;;;;;;;0.80;0.80;;;2.30;99.90;;;;;;5009350;28;20061;-64
2022/12/04 08:11:00;;;;;;;1.00;1.00;;;2.40;99.90;;;;;;5012041;28;20041;-64
2022/12/04 08:13:26;;;;;;;0.57;0.57;;;2.40;99.90;;;;;;5025235;28;20051;-64
2022/12/04 08:15:51;;;;;;;2.38;2.17;;;2.40;99.90;;;;;;5014868;28;20137;-64
2022/12/04 08:18:17;;;;;;;1.70;1.60;;;2.40;99.90;;;;;;5009745;28;20057;-63
2022/12/04 08:20:43;;;;;;;0.90;0.90;;;2.40;99.90;;;;;;5025593;28;20073;-63
2022/12/04 08:23:09;;;;;;;3.15;2.13;;;2.40;99.90;;;;;;5026773;28;20468;-64
2022/12/04 08:25:39;;;;;;;3.65;3.35;;;2.40;99.90;;;;;;5026121;28;20068;-64
2022/12/04 08:28:05;;;;;;;1.77;1.65;;;2.30;99.90;;;;;;5011420;28;20547;-64
2022/12/04 08:30:32;;;;;;;0.40;0.40;;;2.30;99.90;;;;;;5012345;28;20060;-63
2022/12/04 08:32:58;;;;;;;0.50;0.50;;;2.40;99.90;;;;;;5008342;28;20762;-64
2022/12/04 08:35:23;;;;;;;0.43;0.43;;;2.40;99.90;;;;;;5042255;28;20075;-63
2022/12/04 08:37:49;;;;;;;2.33;1.98;;;2.40;99.90;;;;;;5048308;28;20037;-64
2022/12/04 08:40:16;;;;;;;3.70;1.70;;;2.40;99.90;;;;;;5012356;28;20072;-63
2022/12/04 08:42:41;;;;;;;4.60;1.08;;;2.40;99.90;;;;;;5015798;28;20061;-64
2022/12/04 08:45:08;;;;;;;5.05;2.45;;;2.50;99.90;;;;;;5015966;28;20050;-65
2022/12/04 08:47:33;;;;;;;1.45;1.35;;;2.40;99.90;;;;;;5025523;28;20041;-65
2022/12/04 08:49:59;;;;;;;0.22;0.22;;;2.50;99.90;;;;;;5021807;28;20719;-65
2022/12/04 08:52:25;;;;;;;0.45;0.45;;;2.40;99.90;;;;;;5026326;28;20789;-66
2022/12/04 08:54:50;;;;;;;0.28;0.28;;;2.40;99.90;;;;;;5031082;28;20056;-65
2022/12/04 08:57:16;;;;;;;1.48;1.45;;;2.50;99.90;;;;;;5030422;28;20041;-65
2022/12/04 08:59:41;;;;;;;9.63;4.18;;;2.40;99.90;;;;;;5024487;28;20120;-65
2022/12/04 09:02:16;;;;;;;4.88;3.83;;;2.50;99.90;;;;;;5029098;28;20037;-64
2022/12/04 09:04:42;;;;;;;0.25;0.25;;;2.50;99.90;;;;;;5035357;28;20123;-64
2022/12/04 09:07:08;;;;;;;2.97;2.20;;;2.50;99.90;;;;;;5021028;28;20045;-65
2022/12/04 09:09:36;;;;;;;0.75;0.75;;;2.50;99.90;;;;;;5020226;28;20064;-64
2022/12/04 09:12:05;;;;;;;0.85;0.85;;;2.50;99.90;;;;;;5034091;28;20620;-64
2022/12/04 09:14:31;;;;;;;2.15;2.05;;;2.50;99.90;;;;;;5027429;28;20033;-64
2022/12/04 09:16:56;;;;;;;1.15;1.15;;;2.50;99.90;;;;;;5027481;28;20044;-64
2022/12/04 09:19:22;;;;;;;1.77;1.67;;;2.60;99.90;;;;;;5026335;28;20481;-64
2022/12/04 09:21:48;;;;;;;0.70;0.70;;;2.50;99.90;;;;;;5018272;28;20116;-64
2022/12/04 09:24:13;;;;;;;5.53;3.15;;;2.60;99.90;;;;;;5031288;28;20048;-64
2022/12/04 09:26:39;;;;;;;0.93;0.93;;;2.60;99.90;;;;;;5028883;28;20065;-64
2022/12/04 09:29:05;;;;;;;0.63;0.63;;;2.50;99.90;;;;;;5025357;28;20054;-64
2022/12/04 09:31:31;;;;;;;0.52;0.52;;;2.60;99.90;;;;;;5020572;28;20042;-63
2022/12/04 09:34:00;;;;;;;1.73;1.63;;;2.60;99.90;;;;;;5015466;28;20584;-63
2022/12/04 09:36:26;;;;;;;5.78;2.00;;;2.60;99.90;;;;;;5025328;28;20124;-64
2022/12/04 09:38:53;;;;;;;1.70;1.60;;;2.70;99.90;;;;;;5019240;28;20156;-63
2022/12/04 09:41:50;;;;;;;0.57;0.57;;;2.70;99.90;;;;;;5021778;28;20053;-63
2022/12/04 09:44:28;;;;;;;0.57;0.57;;;2.70;99.90;;;;;;5022405;28;20041;-63
2022/12/04 09:47:02;;;;;;;3.33;2.38;;;2.70;99.90;;;;;;5029553;28;20107;-64
2022/12/04 09:49:44;;;;;;;1.27;1.27;;;2.70;99.90;;;;;;5016802;28;20038;-64
2022/12/04 09:52:42;;;;;;;0.50;0.50;;;2.70;99.90;;;;;;5020877;28;20050;-64
2022/12/04 09:55:26;;;;;;;3.67;3.35;;;2.70;99.90;;;;;;5025683;28;20129;-63
2022/12/04 09:57:54;;;;;;;;;;;2.80;99.90;;;;;;5016357;28;20045;-63
2022/12/04 10:00:19;;;;;;;;;;;2.80;99.90;;;;;;5024811;28;19943;-63
2022/12/04 10:02:50;;;;;;;;;;;2.80;99.90;;;;;;5025008;28;20808;-64
2022/12/04 10:05:32;;;;;;;;;;;2.80;99.90;;;;;;5023006;28;20015;-64
2022/12/04 10:08:08;;;;;;;;;;;2.90;99.90;;;;;;5020080;28;21605;-63
2022/12/04 10:10:36;;;;;;;;;;;2.80;99.90;;;;;;5031616;28;19924;-64
2022/12/04 10:13:02;;;;;;;;;;;2.90;99.90;;;;;;5028028;28;20270;-63
2022/12/04 10:15:33;;;;;;;;;;;2.90;99.90;;;;;;5020114;28;19963;-62
2022/12/04 10:18:04;;;;;;;;;;;2.90;99.90;;;;;;5025800;28;19933;-64
2022/12/04 10:20:49;;;;;;;;;;;3.00;99.90;;;;;;5034230;28;20439;-64
2022/12/04 10:23:29;;;;;;;;;;;3.00;99.90;;;;;;5013909;28;19925;-64
2022/12/04 10:25:54;;;;;;;;;;;3.00;99.90;;;;;;5018864;28;19959;-64
2022/12/04 10:28:32;;;;;;;;;;;3.00;99.90;;;;;;5018033;28;19960;-64
2022/12/04 10:31:02;;;;;;;;;;;3.10;99.90;;;;;;5036851;28;19932;-64
2022/12/04 10:33:32;;;;;;;;;;;3.00;99.90;;;;;;5016414;28;19921;-64
2022/12/04 10:35:57;;;;;;;;;;;3.10;99.90;;;;;;5019958;28;20265;-67
2022/12/04 10:38:26;;;;;;;;;;;3.20;99.90;;;;;;5019547;28;19999;-66
2022/12/04 10:41:08;;;;;;;;;;;3.20;99.90;;;;;;5032541;28;20004;-67
2022/12/04 10:43:37;;;;;;;;;;;3.20;99.90;;;;;;5020487;28;20008;-65
2022/12/04 10:46:02;;;;;;;;;;;3.20;99.90;;;;;;5022969;28;20031;-64
2022/12/04 10:48:31;;;;;;;;;;;3.20;99.90;;;;;;5021384;28;20019;-64
2022/12/04 10:50:57;;;;;;;;;;;3.30;99.90;;;;;;5019549;28;19922;-64
2022/12/04 10:53:28;;;;;;;;;;;3.20;99.90;;;;;;5013702;28;20307;-65
2022/12/04 10:55:53;;;;;;;;;;;3.30;99.90;;;;;;5030996;28;20463;-65
2022/12/04 10:58:19;;;;;;;;;;;3.40;99.90;;;;;;5023029;28;20015;-65
2022/12/04 11:00:56;;;;;;;;;;;3.30;99.90;;;;;;5027479;28;20422;-65
2022/12/04 11:03:23;;;;;;;;;;;3.40;99.90;;;;;;5031038;28;19921;-65
2022/12/04 11:05:54;;;;;;;;;;;3.50;99.90;;;;;;5020045;28;20015;-66
2022/12/04 11:08:29;;;;;;;;;;;3.50;99.90;;;;;;5016830;28;19933;-65
2022/12/04 11:11:02;;;;;;;;;;;3.50;99.90;;;;;;5013048;28;19931;-65
2022/12/04 11:13:27;;;;;;;;;;;3.50;99.90;;;;;;5018436;28;20020;-65
2022/12/04 11:15:54;;;;;;;;;;;3.60;99.90;;;;;;5030580;28;20003;-65
2022/12/04 11:18:24;;;;;;;;;;;3.60;99.90;;;;;;5030594;28;19921;-65
2022/12/04 11:20:52;;;;;;;;;;;3.60;99.90;;;;;;5020549;28;20265;-66
2022/12/04 11:23:17;;;;;;;;;;;3.60;99.90;;;;;;5013868;28;20028;-66
2022/12/04 11:25:45;;;;;;;;;;;3.70;99.90;;;;;;5027942;28;20012;-66
2022/12/04 11:28:14;;;;;;;;;;;3.70;99.90;;;;;;5028226;28;19933;-65
2022/12/04 11:30:40;;;;;;;;;;;3.70;99.90;;;;;;5020192;28;19922;-66
2022/12/04 11:33:15;;;;;;;;;;;3.70;99.90;;;;;;5018181;28;19943;-65
2022/12/04 11:35:41;;;;;;;;;;;3.70;99.90;;;;;;5011731;28;19925;-65
2022/12/04 11:38:14;;;;;;;;;;;3.70;99.90;;;;;;5015214;28;20353;-66
2022/12/04 11:40:53;;;;;;;;;;;3.70;99.90;;;;;;5023484;28;19928;-65
2022/12/04 11:43:19;;;;;;;;;;;3.70;99.90;;;;;;5024573;28;19924;-66
2022/12/04 11:45:55;;;;;;;;;;;3.70;99.90;;;;;;5028524;28;19927;-66
2022/12/04 11:48:21;;;;;;;;;;;3.80;99.90;;;;;;5027174;28;20284;-64
2022/12/04 11:50:52;;;;;;;;;;;3.80;99.90;;;;;;5013754;28;19929;-65
2022/12/04 11:53:23;;;;;;;;;;;3.80;99.90;;;;;;5016969;28;20346;-64
2022/12/04 11:55:48;;;;;;;;;;;3.80;99.90;;;;;;5018848;28;19971;-65
2022/12/04 11:58:22;;;;;;;;;;;3.80;99.90;;;;;;5021170;28;19928;-65
2022/12/04 12:01:11;;;;;;;;;;;3.80;99.90;;;;;;5012869;28;20561;-68
2022/12/04 12:03:40;;;;;;;;;;;3.80;99.90;;;;;;5015401;28;19921;-65
2022/12/04 12:06:08;;;;;;;;;;;3.80;99.90;;;;;;5023307;28;20430;-64
2022/12/04 12:08:34;;;;;;;;;;;3.80;99.90;;;;;;5014633;28;19921;-66
2022/12/04 12:11:20;;;;;;;;;;;3.80;99.90;;;;;;5028723;28;19924;-66
2022/12/04 12:13:59;;;;;;;;;;;3.80;99.90;;;;;;5026802;28;20373;-65
2022/12/04 12:16:25;;;;;;;;;;;3.80;99.90;;;;;;5018024;28;19921;-65
2022/12/04 12:19:00;;;;;;;;;;;3.80;99.90;;;;;;5021764;28;19983;-65
2022/12/04 12:21:34;;;;;;;;;;;3.80;99.90;;;;;;5027670;28;19921;-65
2022/12/04 12:24:09;;;;;;;;;;;3.80;99.90;;;;;;5017472;28;19920;-65
2022/12/04 12:26:48;;;;;;;;;;;3.80;99.90;;;;;;5023058;28;19920;-65
2022/12/04 12:29:19;;;;;;;;;;;3.90;99.90;;;;;;5019984;28;19928;-65
2022/12/04 12:32:03;;;;;;;;;;;3.80;99.90;;;;;;5020585;28;20415;-65
2022/12/04 12:34:34;;;;;;;;;;;3.80;99.90;;;;;;5024902;28;19989;-64
2022/12/04 12:37:04;;;;;;;;;;;3.80;99.90;;;;;;5017739;28;19928;-64
2022/12/04 12:39:35;;;;;;;;;;;3.80;99.90;;;;;;5019346;28;20035;-65
2022/12/04 12:42:01;;;;;;;;;;;3.80;99.90;;;;;;5008430;28;19967;-65
2022/12/04 12:44:38;;;;;;;;;;;3.80;99.90;;;;;;5012070;28;19925;-65
2022/12/04 12:47:13;;;;;;;;;;;3.70;99.90;;;;;;5016699;28;19927;-65
2022/12/04 12:49:58;;;;;;;;;;;3.70;99.90;;;;;;5013326;28;20285;-65
2022/12/04 12:52:30;;;;;;;;;;;3.80;99.90;;;;;;5020957;28;19921;-65
2022/12/04 12:55:14;;;;;;;;;;;3.80;99.90;;;;;;5024492;28;19925;-65
2022/12/04 12:57:41;;;;;;;;;;;3.80;99.90;;;;;;5018171;28;19971;-65
2022/12/04 13:00:14;;;;;;;;;;;3.80;99.90;;;;;;5026654;28;19925;-65
2022/12/04 13:02:45;;;;;;;;;;;3.80;99.90;;;;;;5027403;28;20328;-65
2022/12/04 13:05:12;;;;;;;;;;;3.80;99.90;;;;;;5015999;28;19928;-65
2022/12/04 13:07:42;;;;;;;;;;;3.90;99.90;;;;;;5020325;28;19925;-65
2022/12/04 13:10:26;;;;;;;;;;;3.90;99.90;;;;;;5013822;28;19925;-64
2022/12/04 13:12:55;;;;;;;;;;;3.90;99.90;;;;;;5024217;28;19929;-65
2022/12/04 13:15:22;;;;;;;;;;;3.80;99.90;;;;;;5028343;28;19925;-65
2022/12/04 13:17:49;;;;;;;;;;;3.90;99.90;;;;;;5020740;28;20442;-65
2022/12/04 13:20:31;;;;;;;;;;;3.90;99.90;;;;;;5021082;28;20399;-65
2022/12/04 13:23:09;;;;;;;;;;;3.90;99.90;;;;;;5014980;28;20388;-65
2022/12/04 13:25:52;;;;;;;;;;;3.90;99.90;;;;;;5016812;28;20381;-65
2022/12/04 13:28:24;;;;;;;;;;;3.90;99.90;;;;;;5009196;28;20436;-65
2022/12/04 13:31:01;;;;;;;;;;;3.90;99.90;;;;;;5013668;28;19926;-65
2022/12/04 13:33:53;;;;;;;;;;;3.90;99.90;;;;;;5018561;28;19967;-65
2022/12/04 13:36:39;;;;;;;;;;;3.90;99.90;;;;;;5012302;28;20020;-65
2022/12/04 13:39:23;;;;;;;;;;;3.90;99.90;;;;;;5028525;28;19929;-64
2022/12/04 13:41:56;;;;;;;;;;;4.00;99.90;;;;;;5020552;28;19976;-64
2022/12/04 13:44:22;;;;;;;;;;;4.00;99.90;;;;;;5020841;28;19928;-63
2022/12/04 13:46:58;;;;;;;;;;;3.90;99.90;;;;;;5028291;28;19936;-64
2022/12/04 13:49:29;;;;;;;;;;;3.90;99.90;;;;;;5019339;28;19921;-63
2022/12/04 13:51:55;;;;;;;;;;;4.00;99.90;;;;;;5023282;28;20007;-64